Time;durP1;ratioP1;P1;durP2;ratioP2;P2;SDS_P1;SDS_P2;PMS_P1;PMS_P2;Temp;Humidity;BMP_temperature;BMP_pressure;BME280_temperature;BME280_humidity;BME280_pressure;Samples;Min_cycle;Max_cycle;Signal;HPM_P1;HPM_P2
2023/06/15 00:01:31;;;;;;;7.97;5.80;;;;;;;18.44;53.08;101672.44;5094443;28;20027;-59
2023/06/15 00:03:56;;;;;;;6.65;5.90;;;;;;;18.56;53.33;101690.28;5114586;28;20046;-59
2023/06/15 00:06:22;;;;;;;6.35;5.45;;;;;;;18.60;53.00;101688.19;5089894;28;20032;-59
2023/06/15 00:08:47;;;;;;;8.07;5.30;;;;;;;18.67;53.01;101686.69;5095411;28;20024;-59
2023/06/15 00:11:13;;;;;;;12.90;4.85;;;;;;;18.42;53.65;101679.81;5094438;28;20024;-59
2023/06/15 00:13:43;;;;;;;7.07;5.43;;;;;;;18.38;53.38;101690.00;5077681;28;20107;-59
2023/06/15 00:16:08;;;;;;;7.55;5.30;;;;;;;18.55;53.26;101693.94;5094847;28;20027;-59
2023/06/15 00:18:37;;;;;;;7.10;5.43;;;;;;;18.60;53.24;101683.66;5096939;28;20028;-59
2023/06/15 00:21:03;;;;;;;8.98;5.93;;;;;;;18.49;53.62;101693.63;5115212;28;20062;-59
2023/06/15 00:23:29;;;;;;;6.07;5.20;;;;;;;18.34;54.19;101690.34;5115208;28;20055;-59
2023/06/15 00:25:55;;;;;;;6.22;5.68;;;;;;;18.27;53.97;101686.47;5115449;28;20024;-59
2023/06/15 00:28:20;;;;;;;11.98;5.78;;;;;;;18.15;54.56;101675.72;5097116;28;20024;-59
2023/06/15 00:30:46;;;;;;;8.63;6.13;;;;;;;18.26;54.27;101688.28;5114918;28;20031;-59
2023/06/15 00:33:11;;;;;;;6.78;6.10;;;;;;;18.24;54.49;101686.72;5114893;28;20030;-59
2023/06/15 00:35:37;;;;;;;7.93;6.22;;;;;;;18.17;54.49;101680.97;5115484;27;20019;-59
2023/06/15 00:38:03;;;;;;;7.05;6.45;;;;;;;18.32;54.84;101695.00;5096767;28;20019;-59
2023/06/15 00:40:28;;;;;;;12.23;5.97;;;;;;;18.28;55.07;101691.72;5096696;28;20401;-59
2023/06/15 00:42:53;;;;;;;10.60;6.47;;;;;;;18.12;55.10;101688.56;5114621;28;20044;-59
2023/06/15 00:45:19;;;;;;;7.75;6.10;;;;;;;18.34;54.26;101696.59;5096429;28;20094;-59
2023/06/15 00:47:46;;;;;;;7.28;6.55;;;;;;;18.28;54.67;101701.63;5096921;28;20081;-59
2023/06/15 00:50:15;;;;;;;7.88;6.95;;;;;;;18.21;54.70;101701.28;5114629;28;20030;-59
2023/06/15 00:52:42;;;;;;;7.90;6.15;;;;;;;18.32;54.08;101700.38;5115084;27;20024;-59
2023/06/15 00:55:11;;;;;;;8.07;6.15;;;;;;;18.01;55.33;101700.22;5114637;28;20055;-59
2023/06/15 00:57:43;;;;;;;6.85;6.03;;;;;;;18.11;54.43;101692.22;5114799;28;20038;-59
2023/06/15 01:00:10;;;;;;;8.82;6.35;;;;;;;18.14;54.63;101702.75;5097330;28;20024;-59
2023/06/15 01:02:38;;;;;;;8.15;7.00;;;;;;;18.15;55.02;101702.63;5113357;28;20024;-59
2023/06/15 01:05:06;;;;;;;7.05;6.35;;;;;;;17.92;54.94;101698.25;5113158;28;20019;-59
2023/06/15 01:07:35;;;;;;;7.55;6.82;;;;;;;17.98;55.34;101688.84;5080419;28;20035;-59
2023/06/15 01:10:01;;;;;;;13.93;7.13;;;;;;;18.06;55.34;101702.50;5114394;28;20475;-59
2023/06/15 01:12:28;;;;;;;7.03;6.32;;;;;;;17.90;55.41;101695.69;5113479;28;20027;-60
2023/06/15 01:14:54;;;;;;;7.88;7.00;;;;;;;17.88;55.86;101697.66;5113456;28;20020;-60
2023/06/15 01:17:23;;;;;;;7.13;6.45;;;;;;;17.95;55.38;101703.41;5114598;28;20023;-59
2023/06/15 01:19:54;;;;;;;7.93;6.85;;;;;;;18.02;55.94;101695.69;5114383;28;20031;-59
2023/06/15 01:22:49;;;;;;;7.80;7.05;;;;;;;17.89;55.98;101698.50;5114117;28;20087;-59
2023/06/15 01:25:45;;;;;;;10.32;6.28;;;;;;;17.93;55.60;101700.81;5114654;27;20019;-59
2023/06/15 01:28:20;;;;;;;9.18;6.38;;;;;;;17.81;55.91;101696.44;5114329;28;20028;-59
2023/06/15 01:30:48;;;;;;;7.78;6.47;;;;;;;17.74;56.18;101711.31;5113574;28;20063;-59
2023/06/15 01:33:15;;;;;;;8.00;6.73;;;;;;;17.84;55.83;101704.25;5113594;28;20031;-59
2023/06/15 01:35:41;;;;;;;7.18;6.57;;;;;;;17.79;56.20;101716.34;5095998;28;20478;-59
2023/06/15 01:38:07;;;;;;;8.43;6.90;;;;;;;17.69;56.31;101711.69;5114069;28;20088;-59
2023/06/15 01:40:40;;;;;;;8.52;6.50;;;;;;;17.67;56.57;101707.41;5113738;28;20076;-59
2023/06/15 01:43:11;;;;;;;7.55;6.53;;;;;;;17.74;56.23;101708.63;5114175;28;20110;-59
2023/06/15 01:45:38;;;;;;;9.27;7.32;;;;;;;17.66;56.91;101705.69;5113215;28;20034;-59
2023/06/15 01:48:05;;;;;;;8.50;7.35;;;;;;;17.63;56.79;101704.09;5095468;28;20053;-59
2023/06/15 01:50:31;;;;;;;8.38;7.10;;;;;;;17.70;56.95;101709.84;5113404;28;20024;-59
2023/06/15 01:52:56;;;;;;;9.75;7.18;;;;;;;17.68;56.99;101701.91;5113399;28;20024;-59
2023/06/15 01:55:22;;;;;;;7.68;6.90;;;;;;;17.31;58.47;101698.56;5113647;28;20019;-59
2023/06/15 01:57:47;;;;;;;8.77;7.03;;;;;;;17.51;57.52;101705.06;5095313;28;20028;-59
2023/06/15 02:00:15;;;;;;;10.00;7.10;;;;;;;17.51;58.05;101707.75;5095200;28;20038;-59
2023/06/15 02:02:45;;;;;;;10.75;7.70;;;;;;;17.28;58.65;101714.94;5112694;28;20035;-59
2023/06/15 02:05:11;;;;;;;10.10;7.80;;;;;;;17.22;58.40;101702.81;5113181;28;20107;-59
2023/06/15 02:07:36;;;;;;;10.18;7.38;;;;;;;17.25;59.00;101715.16;5113506;28;20145;-59
2023/06/15 02:10:02;;;;;;;9.48;7.43;;;;;;;17.35;58.30;101718.00;5113138;28;20023;-59
2023/06/15 02:12:30;;;;;;;9.75;7.85;;;;;;;17.30;58.87;101710.31;5113169;28;20100;-59
2023/06/15 02:14:57;;;;;;;7.70;6.93;;;;;;;17.12;59.13;101704.53;5112454;28;20032;-59
2023/06/15 02:17:30;;;;;;;9.93;7.40;;;;;;;17.24;59.00;101700.88;5130198;27;20025;-59
2023/06/15 02:19:56;;;;;;;8.27;7.32;;;;;;;17.18;59.45;101709.41;5115270;27;20109;-59
2023/06/15 02:22:21;;;;;;;9.05;7.30;;;;;;;17.13;59.15;101714.28;5133810;27;20019;-59
2023/06/15 02:24:47;;;;;;;8.55;7.10;;;;;;;17.01;59.78;101705.34;5120182;27;20038;-59
2023/06/15 02:27:12;;;;;;;7.90;7.15;;;;;;;17.19;59.21;101715.66;5113070;28;20111;-60
2023/06/15 02:29:38;;;;;;;8.52;7.20;;;;;;;17.24;58.44;101711.63;5112541;28;20023;-60
2023/06/15 02:32:04;;;;;;;15.13;8.07;;;;;;;17.19;59.39;101723.72;5094615;28;20012;-59
2023/06/15 02:34:30;;;;;;;7.55;6.93;;;;;;;17.12;59.49;101723.34;5101524;28;20102;-59
2023/06/15 02:36:56;;;;;;;11.80;7.43;;;;;;;16.94;60.43;101717.53;5119614;27;20024;-59
2023/06/15 02:39:22;;;;;;;8.77;7.72;;;;;;;17.00;59.85;101722.44;5100185;28;20046;-59
2023/06/15 02:41:47;;;;;;;11.88;8.50;;;;;;;17.00;60.01;101729.63;5099414;28;20035;-59
2023/06/15 02:44:14;;;;;;;10.05;7.78;;;;;;;16.87;60.06;101731.53;5106694;28;20168;-59
2023/06/15 02:46:40;;;;;;;10.43;7.78;;;;;;;16.94;59.99;101730.09;5110201;28;20027;-59
2023/06/15 02:49:06;;;;;;;9.00;8.10;;;;;;;16.92;59.89;101718.63;5092058;28;20038;-59
2023/06/15 02:51:32;;;;;;;8.18;7.32;;;;;;;17.00;59.90;101730.50;5092194;28;20052;-59
2023/06/15 02:53:58;;;;;;;8.48;7.78;;;;;;;16.93;60.20;101723.00;5098669;28;20110;-59
2023/06/15 02:56:23;;;;;;;13.20;7.97;;;;;;;16.88;60.38;101730.56;5111403;28;20062;-60
2023/06/15 02:58:53;;;;;;;8.45;7.13;;;;;;;16.67;61.05;101733.00;5089053;28;20024;-59
2023/06/15 03:01:21;;;;;;;8.23;7.53;;;;;;;16.77;60.68;101737.63;5106842;28;20059;-59
2023/06/15 03:03:47;;;;;;;11.57;8.27;;;;;;;16.70;60.83;101736.31;5098635;28;20076;-59
2023/06/15 03:06:14;;;;;;;8.57;7.18;;;;;;;16.74;60.88;101735.13;5093278;28;20106;-59
2023/06/15 03:08:40;;;;;;;9.80;8.23;;;;;;;16.61;61.78;101733.47;5079570;28;20046;-59
2023/06/15 03:11:09;;;;;;;9.07;8.23;;;;;;;16.60;61.48;101739.81;5105423;28;20487;-59
2023/06/15 03:13:34;;;;;;;8.00;6.90;;;;;;;16.74;61.09;101736.97;5095673;28;20372;-59
2023/06/15 03:16:01;;;;;;;8.05;7.25;;;;;;;16.53;61.82;101737.59;5080032;28;20019;-59
2023/06/15 03:18:29;;;;;;;10.88;7.68;;;;;;;16.60;61.36;101743.34;5122630;27;20474;-59
2023/06/15 03:20:57;;;;;;;9.65;7.72;;;;;;;16.62;61.52;101740.53;5074392;28;20084;-59
2023/06/15 03:23:23;;;;;;;8.65;7.72;;;;;;;16.46;61.64;101730.09;5096079;28;20545;-59
2023/06/15 03:25:52;;;;;;;11.45;7.40;;;;;;;16.58;61.89;101743.44;5111554;28;20026;-59
2023/06/15 03:28:24;;;;;;;8.27;7.50;;;;;;;16.62;61.76;101737.84;5093811;28;20118;-59
2023/06/15 03:30:53;;;;;;;10.23;7.75;;;;;;;16.43;62.19;101743.75;5073349;28;20024;-59
2023/06/15 03:33:21;;;;;;;9.02;7.55;;;;;;;16.52;61.84;101740.38;5118178;28;20423;-59
2023/06/15 03:35:53;;;;;;;9.65;8.35;;;;;;;16.53;62.01;101734.91;5105818;28;20020;-59
2023/06/15 03:38:19;;;;;;;8.35;7.57;;;;;;;16.56;62.07;101742.72;5078470;28;20093;-59
2023/06/15 03:40:45;;;;;;;11.85;7.80;;;;;;;16.51;62.14;101730.59;5113162;27;20466;-59
2023/06/15 03:43:11;;;;;;;9.80;7.93;;;;;;;16.43;62.44;101735.69;5115923;28;20027;-59
2023/06/15 03:45:37;;;;;;;9.23;8.18;;;;;;;16.24;62.83;101726.28;5115496;28;20068;-59
2023/06/15 03:48:03;;;;;;;10.63;8.15;;;;;;;16.37;62.98;101733.44;5106810;28;20064;-59
2023/06/15 03:50:28;;;;;;;9.80;7.70;;;;;;;16.41;63.00;101738.47;5095927;28;20100;-59
2023/06/15 03:52:54;;;;;;;13.10;8.95;;;;;;;16.44;63.10;101740.06;5096764;28;20024;-59
2023/06/15 03:55:20;;;;;;;13.20;8.77;;;;;;;16.34;63.40;101734.53;5094075;28;20031;-59
2023/06/15 03:57:45;;;;;;;11.60;8.77;;;;;;;16.42;63.63;101737.50;5115299;27;20023;-59
2023/06/15 04:00:11;;;;;;;14.40;9.13;;;;;;;16.36;63.77;101740.66;5115217;28;20153;-59
2023/06/15 04:02:36;;;;;;;10.10;8.65;;;;;;;16.35;63.55;101737.13;5097205;28;20046;-59
2023/06/15 04:05:02;;;;;;;10.65;8.63;;;;;;;16.46;63.20;101747.03;5115461;28;20103;-59
2023/06/15 04:07:28;;;;;;;10.43;9.43;;;;;;;16.33;63.87;101748.94;5097378;28;20020;-59
2023/06/15 04:09:54;;;;;;;10.45;9.43;;;;;;;16.22;64.27;101746.16;5097295;28;20482;-59
2023/06/15 04:12:21;;;;;;;10.20;9.25;;;;;;;16.32;64.32;101752.56;5115736;28;20108;-59
2023/06/15 04:14:46;;;;;;;12.40;9.82;;;;;;;16.30;64.38;101744.63;5096576;28;20106;-59
2023/06/15 04:17:12;;;;;;;12.82;9.90;;;;;;;16.26;64.47;101751.19;5097212;28;20520;-59
2023/06/15 04:19:37;;;;;;;12.93;10.23;;;;;;;16.33;65.00;101759.66;5096831;28;20027;-59
2023/06/15 04:22:03;;;;;;;12.48;10.05;;;;;;;16.43;63.91;101757.16;5115446;28;20022;-59
2023/06/15 04:24:29;;;;;;;11.35;9.82;;;;;;;16.50;64.57;101759.31;5115214;28;20390;-60
2023/06/15 04:26:57;;;;;;;15.68;10.32;;;;;;;16.54;63.86;101755.41;5096880;28;20056;-59
2023/06/15 04:29:29;;;;;;;11.40;10.15;;;;;;;16.61;64.28;101761.16;5097214;28;20024;-59
2023/06/15 04:31:57;;;;;;;12.48;10.20;;;;;;;16.63;64.50;101769.97;5115387;27;20466;-59
2023/06/15 04:34:26;;;;;;;11.63;10.25;;;;;;;16.66;64.38;101761.69;5113819;28;20084;-59
2023/06/15 04:36:52;;;;;;;11.98;9.98;;;;;;;16.81;63.88;101773.16;5084584;28;20030;-59
2023/06/15 04:39:18;;;;;;;11.93;10.80;;;;;;;16.71;64.52;101766.75;5092891;28;20510;-59
2023/06/15 04:41:46;;;;;;;11.63;10.45;;;;;;;16.70;65.25;101773.91;5111749;28;20048;-59
2023/06/15 04:44:14;;;;;;;11.50;10.40;;;;;;;16.80;64.99;101772.31;5082893;28;20471;-59
2023/06/15 04:46:41;;;;;;;12.88;10.57;;;;;;;16.80;65.02;101769.63;5109887;28;20467;-59
2023/06/15 04:49:08;;;;;;;11.35;10.25;;;;;;;16.82;65.25;101774.00;5103374;28;20107;-59
2023/06/15 04:51:33;;;;;;;13.77;11.23;;;;;;;16.91;64.77;101776.00;5113648;28;20467;-59
2023/06/15 04:53:59;;;;;;;12.20;11.00;;;;;;;17.11;63.20;101778.06;5110632;28;20024;-59
2023/06/15 04:56:24;;;;;;;12.57;11.27;;;;;;;17.09;63.79;101779.13;5090236;28;20028;-59
2023/06/15 04:58:50;;;;;;;16.85;11.75;;;;;;;17.22;63.41;101777.25;5093803;28;20023;-59
2023/06/15 05:01:16;;;;;;;14.77;11.35;;;;;;;17.29;63.23;101775.78;5108262;28;20028;-59
2023/06/15 05:03:44;;;;;;;12.93;11.32;;;;;;;17.28;63.59;101776.78;5112494;28;20114;-59
2023/06/15 05:06:10;;;;;;;14.63;11.35;;;;;;;17.29;63.43;101778.47;5112168;28;20054;-59
2023/06/15 05:08:35;;;;;;;14.68;10.70;;;;;;;17.37;63.49;101778.75;5113211;28;20463;-59
2023/06/15 05:11:01;;;;;;;12.80;10.95;;;;;;;17.50;60.99;101784.06;5104312;28;20429;-59
2023/06/15 05:13:29;;;;;;;14.88;10.95;;;;;;;17.56;60.92;101790.78;5105722;28;20020;-59
2023/06/15 05:15:54;;;;;;;14.65;11.18;;;;;;;17.63;61.73;101782.13;5082893;28;20467;-59
2023/06/15 05:18:23;;;;;;;13.00;11.10;;;;;;;17.66;62.13;101789.94;5095091;28;20034;-59
2023/06/15 05:20:48;;;;;;;13.60;11.05;;;;;;;17.70;61.78;101780.66;5095022;28;20123;-59
2023/06/15 05:23:14;;;;;;;13.20;10.55;;;;;;;17.81;60.56;101779.00;5112236;28;20106;-59
2023/06/15 05:25:39;;;;;;;16.10;11.00;;;;;;;17.92;60.78;101784.41;5106465;28;20027;-59
2023/06/15 05:28:04;;;;;;;18.80;11.48;;;;;;;18.02;59.92;101788.06;5113186;28;20034;-59
2023/06/15 05:30:30;;;;;;;13.35;11.25;;;;;;;18.06;61.79;101784.16;5096292;28;20015;-60
2023/06/15 05:32:55;;;;;;;14.73;11.35;;;;;;;18.25;60.11;101790.75;5110578;28;20028;-59
2023/06/15 05:35:21;;;;;;;12.55;11.40;;;;;;;18.23;59.09;101787.31;5110782;28;20026;-59
2023/06/15 05:37:47;;;;;;;15.65;11.68;;;;;;;18.33;60.58;101789.16;5112830;28;20493;-59
2023/06/15 05:40:12;;;;;;;13.75;12.18;;;;;;;18.41;59.93;101795.75;5112906;27;20062;-59
2023/06/15 05:42:38;;;;;;;12.50;11.40;;;;;;;18.44;60.55;101793.66;5113511;28;20436;-59
2023/06/15 05:45:04;;;;;;;19.83;12.45;;;;;;;18.54;60.22;101797.31;5094801;28;20020;-59
2023/06/15 05:47:31;;;;;;;13.48;12.10;;;;;;;18.69;60.00;101799.75;5111620;28;20030;-59
2023/06/15 05:50:00;;;;;;;15.55;11.18;;;;;;;18.75;58.05;101793.88;5108196;28;20100;-62
2023/06/15 05:52:25;;;;;;;13.88;11.05;;;;;;;18.92;58.35;101796.03;5104402;28;20103;-62
2023/06/15 05:54:50;;;;;;;13.93;11.48;;;;;;;18.93;58.79;101795.03;5074804;28;20116;-62
2023/06/15 05:57:16;;;;;;;14.93;11.57;;;;;;;18.96;58.66;101797.47;5113243;28;20028;-62
2023/06/15 05:59:46;;;;;;;13.82;11.55;;;;;;;19.05;58.27;101796.72;5077200;28;20035;-62
2023/06/15 06:02:13;;;;;;;12.98;10.75;;;;;;;19.20;57.90;101802.66;5111362;28;20024;-62
2023/06/15 06:04:39;;;;;;;16.02;12.40;;;;;;;19.17;57.80;101792.13;5113438;28;20028;-62
2023/06/15 06:07:06;;;;;;;16.63;10.85;;;;;;;19.37;57.21;101801.22;5095510;28;20443;-62
2023/06/15 06:09:33;;;;;;;12.82;11.48;;;;;;;19.37;57.67;101792.28;5092712;28;20051;-62
2023/06/15 06:12:00;;;;;;;14.95;11.98;;;;;;;19.42;57.36;101800.84;5092164;28;20068;-62
2023/06/15 06:14:25;;;;;;;14.55;11.52;;;;;;;19.42;58.27;101796.31;5112754;28;20035;-62
2023/06/15 06:16:51;;;;;;;24.60;13.05;;;;;;;19.43;58.61;101789.91;5094620;28;20027;-62
2023/06/15 06:19:19;;;;;;;12.23;10.95;;;;;;;19.63;57.92;101801.69;5095006;28;20338;-62
2023/06/15 06:21:47;;;;;;;13.13;11.40;;;;;;;19.66;57.89;101801.47;5111358;28;20421;-62
2023/06/15 06:24:13;;;;;;;11.63;10.35;;;;;;;19.76;58.95;101792.56;5105270;28;20524;-62
2023/06/15 06:26:38;;;;;;;20.02;9.20;;;;;;;19.86;57.15;101793.50;5108066;28;20020;-62
2023/06/15 06:29:04;;;;;;;15.45;8.75;;;;;;;19.98;54.67;101792.41;5108391;28;20030;-62
2023/06/15 06:31:31;;;;;;;20.10;10.18;;;;;;;20.06;55.69;101795.28;5121470;27;20405;-59
2023/06/15 06:33:59;;;;;;;19.67;9.75;;;;;;;20.08;56.50;101782.50;5112758;28;20592;-59
2023/06/15 06:36:26;;;;;;;14.90;9.27;;;;;;;20.26;53.88;101796.19;5111984;28;20093;-60
2023/06/15 06:38:51;;;;;;;19.95;8.98;;;;;;;20.23;55.10;101787.53;5112860;28;20034;-59
2023/06/15 06:41:17;;;;;;;19.98;9.55;;;;;;;20.26;55.73;101780.00;5094024;28;20052;-59
2023/06/15 06:43:44;;;;;;;11.75;9.02;;;;;;;20.40;53.70;101792.28;5112415;28;20020;-60
2023/06/15 06:46:10;;;;;;;18.92;9.05;;;;;;;20.50;54.27;101789.59;5112178;28;20363;-60
2023/06/15 06:48:36;;;;;;;19.15;9.38;;;;;;;20.54;54.62;101794.63;5112577;28;20045;-59
2023/06/15 06:51:01;;;;;;;20.05;8.63;;;;;;;20.62;53.08;101783.13;5112534;28;20470;-60
2023/06/15 06:53:27;;;;;;;18.75;9.23;;;;;;;20.76;50.76;101798.94;5093801;28;20482;-60
2023/06/15 06:55:54;;;;;;;15.50;9.15;;;;;;;20.82;53.01;101801.09;5112240;28;20166;-60
2023/06/15 06:58:20;;;;;;;11.75;9.25;;;;;;;20.88;52.57;101791.53;5112706;28;20047;-59
2023/06/15 07:00:46;;;;;;;16.30;9.40;;;;;;;20.96;53.35;101801.66;5093081;28;20442;-59
2023/06/15 07:03:11;;;;;;;18.10;8.98;;;;;;;20.94;54.14;101799.13;5112068;28;20390;-59
2023/06/15 07:05:37;;;;;;;17.88;10.65;;;;;;;21.00;51.16;101798.56;5111914;28;20494;-60
2023/06/15 07:08:02;;;;;;;14.07;8.70;;;;;;;21.08;52.63;101800.53;5112168;28;20096;-60
2023/06/15 07:10:28;;;;;;;14.98;8.60;;;;;;;21.14;50.91;101805.38;5111443;28;20055;-60
2023/06/15 07:12:55;;;;;;;15.43;9.98;;;;;;;21.27;50.31;101797.00;5111976;28;20035;-60
2023/06/15 07:15:22;;;;;;;15.80;9.15;;;;;;;21.32;50.81;101809.09;5111762;28;20463;-60
2023/06/15 07:17:50;;;;;;;18.83;8.32;;;;;;;21.36;50.14;101806.09;5111834;28;20035;-60
2023/06/15 07:20:15;;;;;;;11.98;8.77;;;;;;;21.33;49.44;101799.97;5111826;28;20055;-60
2023/06/15 07:22:42;;;;;;;13.05;7.57;;;;;;;21.36;49.40;101792.56;5112070;28;20092;-60
2023/06/15 07:25:07;;;;;;;14.25;8.10;;;;;;;21.59;48.80;101802.09;5111959;28;20027;-60
2023/06/15 07:27:33;;;;;;;14.23;7.15;;;;;;;21.49;50.03;101790.44;5093893;28;20027;-60
2023/06/15 07:29:58;;;;;;;12.85;7.30;;;;;;;21.59;48.46;101809.34;5111676;28;20513;-60
2023/06/15 07:32:23;;;;;;;12.70;6.70;;;;;;;21.69;48.58;101793.97;5093753;28;20386;-60
2023/06/15 07:34:49;;;;;;;12.43;7.45;;;;;;;21.75;47.96;101812.31;5093723;28;20027;-60
2023/06/15 07:37:14;;;;;;;10.65;6.20;;;;;;;21.91;49.49;101811.69;5112377;28;20458;-59
2023/06/15 07:39:40;;;;;;;11.25;6.60;;;;;;;21.91;46.16;101817.13;5111806;28;20032;-59
2023/06/15 07:42:06;;;;;;;10.75;6.50;;;;;;;21.97;46.81;101811.09;5111509;28;20046;-59
2023/06/15 07:44:32;;;;;;;13.10;6.95;;;;;;;22.09;45.99;101820.78;5076986;28;20421;-60
2023/06/15 07:46:57;;;;;;;10.25;6.25;;;;;;;22.16;45.31;101811.03;5093460;28;20092;-60
2023/06/15 07:49:23;;;;;;;9.85;6.43;;;;;;;22.26;44.75;101810.19;5111919;28;20415;-59
2023/06/15 07:51:50;;;;;;;11.07;6.20;;;;;;;22.23;45.84;101817.59;5093846;28;20572;-60
2023/06/15 07:54:16;;;;;;;10.57;5.95;;;;;;;22.25;45.19;101809.34;5111883;28;20103;-60
2023/06/15 07:56:45;;;;;;;7.30;5.32;;;;;;;22.39;45.11;101808.00;5111149;28;20099;-60
2023/06/15 07:59:10;;;;;;;;;;;;;;;22.45;46.35;101813.66;5112250;28;20051;-60
2023/06/15 08:01:36;;;;;;;8.27;5.10;;;;;;;22.47;44.47;101807.22;5111180;28;19920;-60
2023/06/15 08:04:03;;;;;;;12.55;5.53;;;;;;;22.60;44.06;101818.56;5093338;28;20031;-60
2023/06/15 08:06:28;;;;;;;9.00;4.65;;;;;;;22.64;45.03;101814.53;5111167;28;20106;-60
2023/06/15 08:08:53;;;;;;;8.35;4.95;;;;;;;22.85;43.13;101814.25;5111343;28;20412;-60
2023/06/15 08:11:19;;;;;;;7.80;4.65;;;;;;;22.84;44.39;101813.41;5111765;28;20016;-60
2023/06/15 08:13:44;;;;;;;10.07;5.35;;;;;;;22.73;41.91;101816.34;5093489;28;20023;-60
2023/06/15 08:16:10;;;;;;;6.53;4.63;;;;;;;22.80;42.83;101797.63;5092900;28;20115;-60
2023/06/15 08:18:35;;;;;;;7.10;4.75;;;;;;;22.87;41.56;101809.53;5110874;28;20486;-59
2023/06/15 08:21:00;;;;;;;8.52;4.20;;;;;;;22.88;40.50;101805.81;5111368;28;20027;-60
2023/06/15 08:23:26;;;;;;;9.55;4.68;;;;;;;22.99;40.35;101813.75;5114140;28;20031;-59
2023/06/15 08:25:52;;;;;;;10.73;4.50;;;;;;;23.28;42.11;101816.25;5114866;28;20027;-60
2023/06/15 08:28:18;;;;;;;18.98;4.72;;;;;;;23.15;42.50;101804.06;5096844;28;20084;-60
2023/06/15 08:30:44;;;;;;;10.10;4.78;;;;;;;23.40;39.71;101819.56;5115123;28;20039;-59
2023/06/15 08:33:10;;;;;;;6.45;4.05;;;;;;;23.38;39.36;101805.28;5115173;28;20051;-60
2023/06/15 08:35:35;;;;;;;7.03;4.30;;;;;;;23.45;40.20;101819.09;5114777;28;20031;-60
2023/06/15 08:38:01;;;;;;;7.78;4.38;;;;;;;23.58;42.81;101814.94;5115519;28;20031;-60
2023/06/15 08:40:27;;;;;;;12.57;4.28;;;;;;;23.64;40.94;101813.47;5096685;28;20114;-60
2023/06/15 08:42:53;;;;;;;14.93;4.72;;;;;;;23.66;40.21;101800.59;5096862;28;20130;-60
2023/06/15 08:45:19;;;;;;;8.43;4.10;;;;;;;23.72;37.66;101813.56;5096151;28;20029;-60
2023/06/15 08:47:45;;;;;;;15.60;4.63;;;;;;;23.80;37.52;101804.63;5096395;28;20027;-60
2023/06/15 08:50:10;;;;;;;7.03;4.13;;;;;;;23.76;37.01;101808.66;5096593;28;20024;-60
2023/06/15 08:52:37;;;;;;;9.50;4.75;;;;;;;23.80;37.73;101813.63;5096339;28;20020;-60
2023/06/15 08:55:04;;;;;;;8.10;4.20;;;;;;;23.96;38.25;101818.28;5096185;28;20111;-61
2023/06/15 08:57:32;;;;;;;6.80;4.18;;;;;;;23.94;37.94;101817.63;5096429;28;20486;-59
2023/06/15 08:59:58;;;;;;;7.40;4.38;;;;;;;24.04;37.15;101812.06;5095807;28;20024;-60
2023/06/15 09:02:25;;;;;;;8.05;4.75;;;;;;;24.03;38.10;101803.06;5114293;28;20069;-60
2023/06/15 09:04:51;;;;;;;8.25;4.68;;;;;;;24.15;37.61;101806.34;5114262;28;20027;-61
2023/06/15 09:07:21;;;;;;;8.27;4.53;;;;;;;24.18;38.07;101811.47;5114367;28;20617;-60
2023/06/15 09:10:08;;;;;;;8.48;4.50;;;;;;;24.16;37.53;101801.75;5114247;28;20020;-61
2023/06/15 09:12:33;;;;;;;12.48;4.30;;;;;;;24.10;37.99;101799.69;5096121;28;20032;-60
2023/06/15 09:14:59;;;;;;;12.85;4.85;;;;;;;24.15;38.59;101805.47;5113592;28;20086;-60
2023/06/15 09:17:28;;;;;;;14.38;4.60;;;;;;;24.30;37.41;101800.31;5114081;28;20027;-59
2023/06/15 09:19:53;;;;;;;6.38;4.45;;;;;;;24.45;38.90;101788.66;5114215;28;20015;-60
2023/06/15 09:22:19;;;;;;;8.77;4.70;;;;;;;24.57;38.11;101791.09;5114575;28;20123;-60
2023/06/15 09:24:45;;;;;;;5.70;4.28;;;;;;;24.49;37.40;101805.50;5113979;28;20548;-60
2023/06/15 09:27:18;;;;;;;9.57;4.28;;;;;;;24.58;35.92;101800.94;5114025;28;20024;-60
2023/06/15 09:30:03;;;;;;;9.60;4.50;;;;;;;24.78;36.46;101802.34;5112762;28;20023;-60
2023/06/15 09:32:31;;;;;;;7.85;4.03;;;;;;;24.74;38.68;101801.00;5114066;28;20012;-59
2023/06/15 09:35:00;;;;;;;9.20;4.30;;;;;;;24.90;36.04;101797.44;5112726;28;20076;-59
2023/06/15 09:37:28;;;;;;;7.72;4.45;;;;;;;25.06;34.58;101802.91;5109085;28;20055;-60
2023/06/15 09:39:54;;;;;;;7.22;4.40;;;;;;;24.85;35.33;101799.81;5093533;28;20032;-59
2023/06/15 09:42:28;;;;;;;6.45;4.05;;;;;;;24.96;35.40;101804.09;5111241;28;20104;-61
2023/06/15 09:44:58;;;;;;;7.18;4.70;;;;;;;24.96;34.99;101787.75;5089478;28;20039;-66
2023/06/15 09:47:29;;;;;;;10.60;4.40;;;;;;;25.23;35.89;101792.03;5112924;28;20076;-67
2023/06/15 09:49:54;;;;;;;7.63;4.35;;;;;;;25.54;33.85;101797.66;5113612;28;20045;-64
2023/06/15 09:52:20;;;;;;;9.38;3.80;;;;;;;25.53;34.66;101787.78;5083056;28;20024;-64
2023/06/15 09:54:50;;;;;;;10.23;5.05;;;;;;;25.72;33.54;101795.59;5108675;27;20023;-67
2023/06/15 09:57:19;;;;;;;5.93;4.40;;;;;;;25.96;33.82;101788.41;5114084;28;20080;-66
2023/06/15 09:59:48;;;;;;;6.45;4.50;;;;;;;25.71;32.68;101801.22;5112565;28;20025;-69
2023/06/15 10:02:19;;;;;;;8.77;4.18;;;;;;;25.39;33.97;101800.22;5095601;28;20040;-69
2023/06/15 10:04:47;;;;;;;7.30;4.88;;;;;;;25.21;34.14;101799.53;5077908;28;20118;-64
2023/06/15 10:07:17;;;;;;;6.88;4.30;;;;;;;25.24;33.93;101802.78;5112937;28;20032;-66
2023/06/15 10:09:45;;;;;;;12.98;4.47;;;;;;;24.82;33.22;101800.97;5110111;28;20133;-69
2023/06/15 10:12:11;;;;;;;;;;;;;;;24.99;34.37;101799.16;5112602;27;20383;-60
2023/06/15 10:14:59;;;;;;;8.70;3.95;;;;;;;24.66;36.49;101790.94;5093153;28;19912;-61
2023/06/15 10:17:33;;;;;;;7.93;4.43;;;;;;;24.58;36.10;101795.50;5077179;28;20475;-60
2023/06/15 10:20:09;;;;;;;12.10;5.68;;;;;;;24.42;36.11;101790.84;5110173;28;20027;-60
2023/06/15 10:22:48;;;;;;;8.10;4.88;;;;;;;24.48;35.82;101792.91;5102495;28;20024;-60
2023/06/15 10:25:15;;;;;;;4.97;4.20;;;;;;;24.39;37.11;101786.56;5089237;28;20028;-60
2023/06/15 10:27:44;;;;;;;8.43;4.72;;;;;;;24.41;36.60;101797.25;5113113;28;20016;-60
2023/06/15 10:30:33;;;;;;;7.03;4.28;;;;;;;24.52;34.76;101793.44;5093785;28;20031;-59
2023/06/15 10:33:14;;;;;;;5.30;4.38;;;;;;;24.75;35.49;101788.22;5100112;28;20072;-60
2023/06/15 10:35:53;;;;;;;8.00;4.78;;;;;;;24.98;35.68;101791.16;5112648;28;20119;-60
2023/06/15 10:38:36;;;;;;;5.05;4.60;;;;;;;25.13;34.54;101794.91;5109830;28;20114;-60
2023/06/15 10:41:03;;;;;;;11.07;4.95;;;;;;;25.24;34.70;101794.63;5110341;28;20031;-60
2023/06/15 10:43:29;;;;;;;9.95;4.65;;;;;;;25.29;34.17;101791.38;5111401;28;20032;-60
2023/06/15 10:45:55;;;;;;;6.38;4.50;;;;;;;25.63;33.68;101793.91;5094317;28;20031;-61
2023/06/15 10:48:23;;;;;;;6.95;4.47;;;;;;;25.57;33.86;101787.25;5108488;28;20474;-60
2023/06/15 10:50:51;;;;;;;12.95;4.53;;;;;;;25.45;33.51;101787.81;5096022;28;20429;-60
2023/06/15 10:53:27;;;;;;;8.93;4.95;;;;;;;25.28;34.39;101790.53;5092978;28;20069;-60
2023/06/15 10:55:57;;;;;;;7.53;4.68;;;;;;;25.45;34.79;101785.06;5112579;28;20466;-60
2023/06/15 10:58:26;;;;;;;12.27;4.55;;;;;;;25.48;32.82;101785.59;5110701;28;20024;-68
2023/06/15 11:01:07;;;;;;;8.02;4.25;;;;;;;25.53;33.90;101785.94;5111715;28;20024;-69
2023/06/15 11:03:33;;;;;;;10.57;4.68;;;;;;;25.33;34.42;101788.16;5111258;28;20103;-65
2023/06/15 11:06:03;;;;;;;12.90;4.75;;;;;;;25.53;35.20;101787.78;5110181;28;20054;-61
2023/06/15 11:08:41;;;;;;;9.70;4.55;;;;;;;25.73;35.38;101780.94;5112441;28;20034;-60
2023/06/15 11:11:11;;;;;;;7.50;4.47;;;;;;;25.56;34.64;101782.84;5111089;28;20023;-60
2023/06/15 11:13:54;;;;;;;8.13;4.40;;;;;;;25.56;34.90;101782.84;5110763;28;20032;-61
2023/06/15 11:16:25;;;;;;;7.18;5.07;;;;;;;25.38;34.07;101784.88;5111891;28;20090;-60
2023/06/15 11:19:22;;;;;;;7.85;5.15;;;;;;;25.32;35.37;101786.41;5112409;28;20102;-61
2023/06/15 11:22:01;;;;;;;5.80;4.30;;;;;;;25.37;35.00;101785.94;5112243;28;20027;-61